Time;durP1;ratioP1;P1;durP2;ratioP2;P2;SDS_P1;SDS_P2;PMS_P1;PMS_P2;Temp;Humidity;BMP_temperature;BMP_pressure;BME280_temperature;BME280_humidity;BME280_pressure;Samples;Min_cycle;Max_cycle;Signal;HPM_P1;HPM_P2
2022/09/26 00:01:50;;;;;;;9.18;2.15;;;11.40;99.90;;;;;;4877417;29;20051;-74
2022/09/26 00:04:19;;;;;;;4.20;2.03;;;11.40;99.90;;;;;;4861656;29;20041;-74
2022/09/26 00:06:46;;;;;;;4.97;2.50;;;11.40;99.90;;;;;;4850626;29;20778;-74
2022/09/26 00:09:13;;;;;;;7.78;2.30;;;11.40;99.90;;;;;;4862182;29;20459;-73
2022/09/26 00:11:39;;;;;;;9.50;2.20;;;11.40;99.90;;;;;;4879098;29;20106;-72
2022/09/26 00:14:10;;;;;;;4.63;2.15;;;11.40;99.90;;;;;;4836887;29;20061;-73
2022/09/26 00:16:37;;;;;;;7.07;2.13;;;11.40;99.90;;;;;;4865679;29;20167;-73
2022/09/26 00:19:03;;;;;;;5.15;2.47;;;11.40;99.90;;;;;;4849208;29;22267;-73
2022/09/26 00:21:30;;;;;;;8.77;1.98;;;11.40;99.90;;;;;;4852793;29;20060;-73
2022/09/26 00:23:57;;;;;;;5.10;2.40;;;11.40;99.90;;;;;;4847373;29;20147;-72
2022/09/26 00:26:24;;;;;;;9.18;2.42;;;11.40;99.90;;;;;;4849921;29;20060;-72
2022/09/26 00:28:50;;;;;;;4.93;2.08;;;11.40;99.90;;;;;;4847530;29;20048;-72
2022/09/26 00:31:20;;;;;;;6.28;2.17;;;11.40;99.90;;;;;;4866420;29;20048;-73
2022/09/26 00:33:46;;;;;;;5.35;2.03;;;11.40;99.90;;;;;;4863575;29;20239;-73
2022/09/26 00:36:12;;;;;;;5.18;2.47;;;11.40;99.90;;;;;;4867063;29;20077;-73
2022/09/26 00:38:38;;;;;;;6.30;2.38;;;11.50;99.90;;;;;;4840493;29;20061;-73
2022/09/26 00:41:05;;;;;;;7.43;2.55;;;11.50;99.90;;;;;;4850685;29;20133;-73
2022/09/26 00:43:47;;;;;;;6.95;2.20;;;11.50;99.90;;;;;;4859900;29;20052;-73
2022/09/26 00:46:28;;;;;;;7.27;2.50;;;11.50;99.90;;;;;;4879311;29;20059;-73
2022/09/26 00:49:19;;;;;;;4.78;2.38;;;11.50;99.90;;;;;;4868723;29;20052;-73
2022/09/26 00:51:49;;;;;;;7.47;2.40;;;11.50;99.90;;;;;;4863804;29;20049;-72
2022/09/26 00:54:17;;;;;;;7.07;2.40;;;11.50;99.90;;;;;;4868219;29;20532;-73
2022/09/26 00:56:47;;;;;;;5.13;3.00;;;11.50;99.90;;;;;;4836723;29;20048;-73
2022/09/26 00:59:27;;;;;;;6.30;3.75;;;11.50;99.90;;;;;;4864121;29;20108;-73
2022/09/26 01:01:56;;;;;;;10.05;3.15;;;11.50;99.90;;;;;;4860807;29;20053;-73
2022/09/26 01:04:26;;;;;;;8.95;2.50;;;11.50;99.90;;;;;;4857949;29;20172;-73
2022/09/26 01:06:54;;;;;;;7.40;3.10;;;11.60;99.90;;;;;;4862211;29;20053;-72
2022/09/26 01:09:20;;;;;;;7.93;2.55;;;11.60;99.90;;;;;;4859800;29;20067;-73
2022/09/26 01:11:46;;;;;;;8.57;2.10;;;11.60;99.90;;;;;;4833594;29;20048;-73
2022/09/26 01:14:12;;;;;;;3.35;2.13;;;11.60;99.90;;;;;;4853354;29;20053;-73
2022/09/26 01:16:40;;;;;;;5.93;2.60;;;11.50;99.90;;;;;;4865632;29;20597;-72
2022/09/26 01:19:24;;;;;;;7.10;3.03;;;11.60;99.90;;;;;;4867488;29;20052;-73
2022/09/26 01:22:08;;;;;;;7.25;3.58;;;11.60;99.90;;;;;;4873841;29;20606;-73
2022/09/26 01:24:51;;;;;;;6.32;2.33;;;11.60;99.90;;;;;;4851362;29;20052;-73
2022/09/26 01:27:33;;;;;;;6.50;2.80;;;11.60;99.90;;;;;;4870163;29;20056;-72
2022/09/26 01:30:27;;;;;;;10.00;3.08;;;11.60;99.90;;;;;;4867683;29;20053;-73
2022/09/26 01:33:18;;;;;;;7.15;3.92;;;11.60;99.90;;;;;;4872129;29;20120;-73
2022/09/26 01:35:50;;;;;;;7.18;2.78;;;11.60;99.90;;;;;;4869054;29;20064;-73
2022/09/26 01:38:34;;;;;;;11.00;3.30;;;11.50;99.90;;;;;;4857093;29;20126;-73
2022/09/26 01:41:06;;;;;;;6.35;2.50;;;11.60;99.90;;;;;;4865703;29;20072;-73
2022/09/26 01:43:53;;;;;;;6.13;2.47;;;11.60;99.90;;;;;;4863455;29;20052;-72
2022/09/26 01:46:47;;;;;;;6.07;2.47;;;11.60;99.90;;;;;;4879056;29;21832;-73
2022/09/26 01:49:13;;;;;;;5.05;2.40;;;11.60;99.90;;;;;;4869687;29;20087;-72
2022/09/26 01:52:05;;;;;;;6.85;3.00;;;11.50;99.90;;;;;;4867610;29;20049;-72
2022/09/26 01:55:02;;;;;;;5.95;2.47;;;11.60;99.90;;;;;;4870327;29;20075;-72
2022/09/26 01:57:39;;;;;;;7.20;2.50;;;11.50;99.90;;;;;;4843793;29;20488;-72
2022/09/26 02:00:11;;;;;;;7.43;3.03;;;11.50;99.90;;;;;;4867123;29;20076;-73
2022/09/26 02:02:44;;;;;;;9.77;3.97;;;11.50;99.90;;;;;;4825157;29;20112;-73
2022/09/26 02:05:37;;;;;;;10.90;4.80;;;11.50;99.90;;;;;;4865638;29;20110;-72
2022/09/26 02:08:15;;;;;;;12.30;6.50;;;11.50;99.90;;;;;;4865940;29;20052;-72
2022/09/26 02:10:51;;;;;;;7.85;4.15;;;11.50;99.90;;;;;;4878241;29;20877;-71
2022/09/26 02:13:25;;;;;;;8.57;3.10;;;11.50;99.90;;;;;;4868952;29;20839;-71
2022/09/26 02:15:55;;;;;;;6.97;3.00;;;11.50;99.90;;;;;;4852247;29;20571;-71
2022/09/26 02:18:36;;;;;;;6.95;3.60;;;11.40;99.90;;;;;;4865081;29;20049;-70
2022/09/26 02:21:10;;;;;;;8.60;3.10;;;11.50;99.90;;;;;;4851899;29;20453;-70
2022/09/26 02:23:36;;;;;;;7.43;3.00;;;11.40;99.90;;;;;;4863979;29;20566;-70
2022/09/26 02:26:02;;;;;;;5.13;2.67;;;11.40;99.90;;;;;;4875836;29;20053;-69
2022/09/26 02:28:30;;;;;;;10.43;2.85;;;11.40;99.90;;;;;;4851117;29;20062;-69
2022/09/26 02:30:59;;;;;;;9.20;3.40;;;11.40;99.90;;;;;;4852473;29;20492;-69
2022/09/26 02:33:27;;;;;;;4.07;2.90;;;11.40;99.90;;;;;;4862983;29;20056;-69
2022/09/26 02:35:53;;;;;;;8.20;3.60;;;11.40;99.90;;;;;;4878140;29;20107;-69
2022/09/26 02:38:21;;;;;;;10.35;4.80;;;11.30;99.90;;;;;;4873397;29;20925;-69
2022/09/26 02:41:29;;;;;;;10.23;5.53;;;11.40;99.90;;;;;;4865041;29;20136;-69
2022/09/26 02:44:32;;;;;;;12.75;6.55;;;11.40;99.90;;;;;;4867876;29;20519;-70
2022/09/26 02:47:13;;;;;;;12.00;5.75;;;11.30;99.90;;;;;;4862560;29;20041;-70
2022/09/26 02:50:13;;;;;;;12.93;6.10;;;11.30;99.90;;;;;;4851521;29;20056;-69
2022/09/26 02:53:03;;;;;;;10.95;5.45;;;11.40;99.90;;;;;;4864511;29;20119;-70
2022/09/26 02:56:02;;;;;;;7.00;3.88;;;11.30;99.90;;;;;;4882033;29;20698;-70
2022/09/26 02:58:41;;;;;;;4.78;3.45;;;11.30;99.90;;;;;;4877039;29;20087;-70
2022/09/26 03:01:17;;;;;;;14.60;3.92;;;11.30;99.90;;;;;;4850881;29;20882;-70
2022/09/26 03:03:55;;;;;;;6.25;3.45;;;11.30;99.90;;;;;;4859451;29;20506;-70
2022/09/26 03:06:28;;;;;;;6.22;3.40;;;11.30;99.90;;;;;;4858463;29;20626;-70
2022/09/26 03:08:55;;;;;;;12.00;4.05;;;11.30;99.90;;;;;;4864467;29;20057;-70
2022/09/26 03:11:24;;;;;;;9.73;3.70;;;11.30;99.90;;;;;;4866344;29;20422;-70
2022/09/26 03:13:53;;;;;;;8.10;3.80;;;11.20;99.90;;;;;;4865246;29;20365;-70
2022/09/26 03:16:22;;;;;;;5.55;3.58;;;11.30;99.90;;;;;;4867116;29;20044;-70
2022/09/26 03:19:09;;;;;;;7.88;4.07;;;11.20;99.90;;;;;;4850787;29;20083;-71
2022/09/26 03:21:35;;;;;;;10.05;3.95;;;11.20;99.90;;;;;;4864289;29;20104;-70
2022/09/26 03:24:01;;;;;;;7.70;4.03;;;11.20;99.90;;;;;;4866554;29;20063;-71
2022/09/26 03:26:28;;;;;;;10.38;3.55;;;11.20;99.90;;;;;;4854278;29;20084;-70
2022/09/26 03:28:55;;;;;;;8.40;4.07;;;11.20;99.90;;;;;;4862858;29;20064;-70
2022/09/26 03:31:24;;;;;;;6.38;4.00;;;11.20;99.90;;;;;;4866888;29;20067;-70
2022/09/26 03:33:53;;;;;;;8.02;3.53;;;11.20;99.90;;;;;;4849707;29;20656;-70
2022/09/26 03:36:21;;;;;;;7.30;4.05;;;11.20;99.90;;;;;;4854401;29;20622;-71
2022/09/26 03:38:47;;;;;;;15.98;4.53;;;11.20;99.90;;;;;;4868690;29;20478;-70
2022/09/26 03:41:13;;;;;;;11.55;4.13;;;11.20;99.90;;;;;;4855302;29;20059;-70
2022/09/26 03:43:42;;;;;;;9.18;4.32;;;11.20;99.90;;;;;;4851097;29;20056;-71
2022/09/26 03:46:10;;;;;;;11.98;4.55;;;11.20;99.90;;;;;;4861355;29;20049;-71
2022/09/26 03:48:38;;;;;;;8.30;4.07;;;11.20;99.90;;;;;;4865685;29;20500;-70
2022/09/26 03:51:06;;;;;;;11.80;4.45;;;11.20;99.90;;;;;;4864999;29;20076;-71
2022/09/26 03:53:38;;;;;;;8.38;4.30;;;11.20;99.90;;;;;;4865305;29;20048;-71
2022/09/26 03:56:07;;;;;;;11.57;4.45;;;11.20;99.90;;;;;;4855883;29;20894;-70
2022/09/26 03:58:33;;;;;;;7.72;4.30;;;11.20;99.90;;;;;;4862351;29;22681;-71
2022/09/26 04:01:07;;;;;;;6.47;4.25;;;11.20;99.90;;;;;;4864648;29;22091;-70
2022/09/26 04:03:35;;;;;;;10.00;4.55;;;11.20;99.90;;;;;;4865342;29;20067;-70
2022/09/26 04:06:02;;;;;;;8.52;4.47;;;11.20;99.90;;;;;;4862349;29;20551;-70
2022/09/26 04:08:28;;;;;;;7.88;4.75;;;11.20;99.90;;;;;;4848211;29;20171;-70
2022/09/26 04:11:03;;;;;;;13.30;5.20;;;11.20;99.90;;;;;;4864582;29;20551;-70
2022/09/26 04:13:29;;;;;;;10.15;4.45;;;11.20;99.90;;;;;;4854628;29;20534;-70
2022/09/26 04:15:56;;;;;;;12.68;4.30;;;11.20;99.90;;;;;;4862785;29;20501;-70
2022/09/26 04:18:23;;;;;;;9.98;4.40;;;11.20;99.90;;;;;;4865873;29;20052;-70
2022/09/26 04:20:49;;;;;;;6.43;4.47;;;11.20;99.90;;;;;;4849977;29;20496;-72
2022/09/26 04:23:15;;;;;;;7.00;4.82;;;11.20;99.90;;;;;;4855433;29;20171;-72
2022/09/26 04:25:40;;;;;;;8.32;4.45;;;11.20;99.90;;;;;;4861505;29;21116;-72
2022/09/26 04:28:07;;;;;;;8.73;4.10;;;11.10;99.90;;;;;;4865601;29;20052;-72
2022/09/26 04:30:32;;;;;;;10.50;4.43;;;11.20;99.90;;;;;;4853548;29;20480;-73
2022/09/26 04:32:58;;;;;;;6.78;4.00;;;11.20;99.90;;;;;;4863327;29;20075;-73
2022/09/26 04:35:26;;;;;;;8.93;4.65;;;11.20;99.90;;;;;;4865717;29;20060;-73
2022/09/26 04:37:51;;;;;;;13.05;5.15;;;11.10;99.90;;;;;;4865103;29;20667;-72
2022/09/26 04:40:17;;;;;;;5.53;4.20;;;11.20;99.90;;;;;;4862861;29;20096;-70
2022/09/26 04:42:43;;;;;;;7.82;4.35;;;11.20;99.90;;;;;;4850152;29;20076;-70
2022/09/26 04:45:09;;;;;;;11.95;4.70;;;11.20;99.90;;;;;;4869504;29;20059;-70
2022/09/26 04:47:35;;;;;;;8.40;4.47;;;11.20;99.90;;;;;;4868789;29;20333;-70
2022/09/26 04:50:00;;;;;;;7.50;4.30;;;11.20;99.90;;;;;;4861810;29;21830;-70
2022/09/26 04:52:26;;;;;;;8.38;4.47;;;11.20;99.90;;;;;;4866390;29;20144;-71
2022/09/26 04:54:52;;;;;;;7.03;4.50;;;11.20;99.90;;;;;;4863074;29;20132;-71
2022/09/26 04:57:18;;;;;;;6.72;4.88;;;11.10;99.90;;;;;;4848525;29;20048;-71
2022/09/26 04:59:44;;;;;;;9.30;4.90;;;11.10;99.90;;;;;;4876870;29;20049;-71
2022/09/26 05:02:10;;;;;;;8.57;4.72;;;11.10;99.90;;;;;;4847037;29;20056;-71
2022/09/26 05:04:36;;;;;;;9.02;4.93;;;11.10;99.90;;;;;;4832084;29;20129;-71
2022/09/26 05:07:02;;;;;;;13.77;5.05;;;11.10;99.90;;;;;;4839686;29;20056;-70
2022/09/26 05:09:28;;;;;;;7.88;5.10;;;11.10;99.90;;;;;;4828870;29;20131;-71
2022/09/26 05:11:53;;;;;;;9.68;5.50;;;11.10;99.90;;;;;;4876963;29;20045;-71
2022/09/26 05:14:19;;;;;;;10.30;5.20;;;11.10;99.90;;;;;;4856424;29;20127;-71
2022/09/26 05:16:46;;;;;;;7.57;4.88;;;11.10;99.90;;;;;;4864951;29;20048;-71
2022/09/26 05:19:11;;;;;;;8.68;5.28;;;11.10;99.90;;;;;;4863525;29;20048;-71
2022/09/26 05:21:37;;;;;;;7.05;5.28;;;11.10;99.90;;;;;;4863071;29;20063;-71
2022/09/26 05:26:51;;;;;;;9.00;5.28;;;11.10;99.90;;;;;;4860305;29;20999;-71
2022/09/26 05:29:18;;;;;;;10.63;5.13;;;11.00;99.90;;;;;;4863777;29;20052;-71
2022/09/26 05:31:45;;;;;;;10.15;5.60;;;11.00;99.90;;;;;;4857760;29;20076;-71
2022/09/26 05:34:12;;;;;;;12.82;5.80;;;11.00;99.90;;;;;;4847997;29;20056;-71
2022/09/26 05:36:41;;;;;;;7.72;5.20;;;11.00;99.90;;;;;;4846769;29;20298;-70
2022/09/26 05:40:55;;;;;;;11.13;5.10;;;11.00;99.90;;;;;;4859989;29;20382;-70
2022/09/26 05:41:54;;;;;;;11.07;5.63;;;11.00;99.90;;;;;;4865539;29;20049;-70
2022/09/26 05:44:20;;;;;;;9.18;6.20;;;11.00;99.90;;;;;;4866320;29;20056;-71
2022/09/26 05:46:46;;;;;;;10.20;5.97;;;11.00;99.90;;;;;;4869451;29;20173;-70
2022/09/26 05:49:13;;;;;;;10.38;5.65;;;11.00;99.90;;;;;;4858738;29;20127;-71
2022/09/26 05:51:40;;;;;;;9.48;6.03;;;11.00;99.90;;;;;;4856973;29;20083;-70
2022/09/26 05:54:06;;;;;;;10.90;5.63;;;11.00;99.90;;;;;;4864400;29;20124;-70
2022/09/26 05:56:36;;;;;;;9.30;5.80;;;10.90;99.90;;;;;;4846220;29;20108;-70
2022/09/26 05:59:03;;;;;;;10.02;5.65;;;11.00;99.90;;;;;;4859768;29;20186;-70
2022/09/26 06:01:29;;;;;;;9.38;5.60;;;11.00;99.90;;;;;;4864420;29;20056;-70
2022/09/26 06:03:54;;;;;;;9.80;5.88;;;10.90;99.90;;;;;;4852287;29;20127;-71
2022/09/26 06:06:20;;;;;;;17.35;5.75;;;10.90;99.90;;;;;;4852098;29;20053;-71
2022/09/26 06:08:47;;;;;;;9.73;5.32;;;10.90;99.90;;;;;;4863803;29;20053;-70
2022/09/26 06:11:18;;;;;;;9.07;5.47;;;10.90;99.90;;;;;;4868495;29;20075;-71
2022/09/26 06:13:45;;;;;;;9.30;5.93;;;11.00;99.90;;;;;;4877912;29;20053;-70
2022/09/26 06:16:17;;;;;;;9.40;5.20;;;10.90;99.90;;;;;;4869021;29;20418;-71
2022/09/26 06:18:43;;;;;;;8.57;5.72;;;10.90;99.90;;;;;;4865904;29;20531;-70
2022/09/26 06:21:10;;;;;;;9.82;5.25;;;10.90;99.90;;;;;;4868758;29;20056;-71
2022/09/26 06:23:37;;;;;;;9.23;6.03;;;10.90;99.90;;;;;;4864587;29;20064;-71
2022/09/26 06:26:07;;;;;;;11.73;5.90;;;10.90;99.90;;;;;;4861074;29;20059;-70
2022/09/26 06:28:37;;;;;;;8.27;5.20;;;10.90;99.90;;;;;;4869729;29;20049;-70
2022/09/26 06:31:10;;;;;;;9.77;5.35;;;10.90;99.90;;;;;;4858125;29;20768;-70
2022/09/26 06:33:36;;;;;;;11.13;5.00;;;10.90;99.90;;;;;;4861102;29;20132;-71
2022/09/26 06:36:05;;;;;;;9.70;5.18;;;10.90;99.90;;;;;;4830869;29;20076;-70
2022/09/26 06:38:31;;;;;;;10.77;5.30;;;10.90;99.90;;;;;;4861050;29;20411;-71
2022/09/26 06:40:56;;;;;;;11.75;5.35;;;10.90;99.90;;;;;;4841251;29;20041;-71
2022/09/26 06:43:22;;;;;;;11.10;5.18;;;10.90;99.90;;;;;;4842476;29;20057;-71
2022/09/26 06:45:48;;;;;;;12.52;4.78;;;10.90;99.90;;;;;;4872670;29;20067;-71
2022/09/26 06:48:18;;;;;;;6.82;4.55;;;10.80;99.90;;;;;;4868247;29;20048;-71
2022/09/26 06:50:44;;;;;;;11.93;5.35;;;10.90;99.90;;;;;;4869430;29;20049;-71
2022/09/26 06:53:10;;;;;;;8.35;5.00;;;10.90;99.90;;;;;;4872262;29;20409;-70
2022/09/26 06:55:36;;;;;;;8.35;5.30;;;10.90;99.90;;;;;;4869712;29;20040;-70
2022/09/26 06:58:02;;;;;;;10.90;5.40;;;10.80;99.90;;;;;;4868683;29;20087;-70
2022/09/26 07:00:34;;;;;;;9.00;5.07;;;10.80;99.90;;;;;;4870570;29;20505;-70
2022/09/26 07:03:00;;;;;;;9.07;5.30;;;10.80;99.90;;;;;;4871226;29;20047;-70
2022/09/26 07:05:27;;;;;;;10.75;5.68;;;10.80;99.90;;;;;;4880585;29;20052;-70
2022/09/26 07:07:53;;;;;;;10.20;5.20;;;10.80;99.90;;;;;;4865327;29;20183;-70
2022/09/26 07:10:20;;;;;;;11.98;5.13;;;10.80;99.90;;;;;;4869845;29;20563;-70
2022/09/26 07:12:47;;;;;;;13.13;5.38;;;10.90;99.90;;;;;;4841016;29;20063;-71
2022/09/26 07:15:18;;;;;;;12.68;5.20;;;10.90;99.90;;;;;;4866984;29;20117;-70
2022/09/26 07:17:47;;;;;;;7.93;4.82;;;10.90;99.90;;;;;;4872443;29;20968;-70
2022/09/26 07:20:16;;;;;;;9.82;5.55;;;10.90;99.90;;;;;;4869306;29;21807;-71
2022/09/26 07:22:42;;;;;;;8.70;4.60;;;10.90;99.90;;;;;;4868752;29;20059;-70
2022/09/26 07:25:09;;;;;;;10.57;4.85;;;10.90;99.90;;;;;;4871973;29;20508;-71
2022/09/26 07:27:36;;;;;;;8.90;5.20;;;10.90;99.90;;;;;;4858870;29;20132;-70
2022/09/26 07:30:05;;;;;;;8.90;5.35;;;10.90;99.90;;;;;;4871860;29;20048;-70
2022/09/26 07:32:31;;;;;;;8.23;4.70;;;10.90;99.90;;;;;;4872288;29;20511;-70
2022/09/26 07:35:03;;;;;;;9.07;4.80;;;10.90;99.90;;;;;;4866581;29;20442;-70
2022/09/26 07:37:30;;;;;;;9.48;4.90;;;10.90;99.90;;;;;;4868272;29;20049;-70
2022/09/26 07:39:56;;;;;;;7.10;4.32;;;10.90;99.90;;;;;;4868404;29;20136;-71
2022/09/26 07:42:22;;;;;;;9.48;4.20;;;10.90;99.90;;;;;;4869017;29;20056;-71
2022/09/26 07:44:48;;;;;;;10.75;4.30;;;10.80;99.90;;;;;;4883424;29;20131;-71
2022/09/26 07:50:15;;;;;;;7.43;4.40;;;10.90;99.90;;;;;;4868532;29;20053;-71
2022/09/26 07:52:49;;;;;;;12.23;4.63;;;10.90;99.90;;;;;;4869590;29;20143;-71
2022/09/26 07:55:26;;;;;;;9.68;4.45;;;10.90;99.90;;;;;;4855817;29;20045;-71
2022/09/26 07:57:52;;;;;;;8.55;3.97;;;11.00;99.90;;;;;;4860467;29;20056;-71
2022/09/26 08:00:20;;;;;;;6.63;4.00;;;11.00;99.90;;;;;;4867846;29;20052;-71
2022/09/26 08:02:46;;;;;;;6.15;3.72;;;11.10;99.90;;;;;;4853530;29;20064;-71
2022/09/26 08:05:24;;;;;;;9.68;3.95;;;11.10;99.90;;;;;;4852061;29;20684;-71
2022/09/26 08:07:50;;;;;;;6.80;3.90;;;11.10;99.90;;;;;;4867307;29;20067;-71
2022/09/26 08:10:19;;;;;;;5.00;3.53;;;11.10;99.90;;;;;;4869151;29;20096;-71
2022/09/26 08:12:46;;;;;;;6.65;3.70;;;11.20;99.90;;;;;;4855239;29;21161;-71
2022/09/26 08:15:12;;;;;;;5.07;3.60;;;11.20;99.90;;;;;;4868346;29;20424;-71
2022/09/26 08:17:39;;;;;;;5.90;3.67;;;11.20;99.90;;;;;;4868869;29;20121;-71
2022/09/26 08:20:06;;;;;;;6.43;3.67;;;11.30;99.90;;;;;;4853962;29;20075;-71
2022/09/26 08:22:32;;;;;;;6.22;3.47;;;11.30;99.90;;;;;;4868640;29;20060;-71
2022/09/26 08:24:59;;;;;;;7.35;3.58;;;11.30;99.90;;;;;;4866604;29;20060;-71
2022/09/26 08:27:25;;;;;;;7.50;3.20;;;11.40;99.90;;;;;;4870070;29;20747;-71
2022/09/26 08:29:52;;;;;;;9.07;3.30;;;11.30;99.90;;;;;;4867213;29;20073;-71
2022/09/26 08:32:19;;;;;;;7.45;3.22;;;11.40;99.90;;;;;;4865590;29;20045;-71
2022/09/26 08:34:45;;;;;;;10.55;3.25;;;11.40;99.90;;;;;;4870204;29;20084;-71
2022/09/26 08:37:13;;;;;;;14.65;3.60;;;11.40;99.90;;;;;;4875691;29;20057;-72
2022/09/26 08:39:38;;;;;;;6.13;3.10;;;11.40;99.90;;;;;;4874564;29;20071;-72
2022/09/26 08:42:10;;;;;;;8.02;3.33;;;11.30;99.90;;;;;;4875306;29;20048;-71
2022/09/26 08:48:25;;;;;;;9.00;3.38;;;11.40;99.90;;;;;;4874814;29;20135;-71
2022/09/26 08:51:10;;;;;;;7.55;3.75;;;11.40;99.90;;;;;;4871211;29;20071;-71
2022/09/26 08:53:47;;;;;;;9.07;3.45;;;11.40;99.90;;;;;;4867327;29;20048;-72
2022/09/26 08:56:34;;;;;;;8.18;3.17;;;11.50;99.90;;;;;;4843396;29;20831;-72
2022/09/26 08:59:02;;;;;;;5.45;3.25;;;11.50;99.90;;;;;;4882305;29;20048;-71
2022/09/26 09:01:30;;;;;;;6.45;3.50;;;11.50;99.90;;;;;;4859131;29;20049;-71
2022/09/26 09:04:10;;;;;;;9.93;3.65;;;11.50;99.90;;;;;;4866237;29;20059;-71
2022/09/26 09:06:37;;;;;;;6.95;3.65;;;11.60;99.90;;;;;;4868956;29;20056;-71
2022/09/26 09:09:02;;;;;;;8.48;3.80;;;11.60;99.90;;;;;;4882231;29;20048;-72
2022/09/26 09:11:59;;;;;;;7.07;3.80;;;11.60;99.90;;;;;;4867196;29;20069;-71
2022/09/26 09:14:49;;;;;;;7.50;3.28;;;11.60;99.90;;;;;;4871217;29;20048;-74
2022/09/26 09:17:20;;;;;;;10.85;4.15;;;11.60;99.90;;;;;;4868601;29;20289;-72
2022/09/26 09:19:52;;;;;;;7.60;3.70;;;11.60;99.90;;;;;;4853782;29;20064;-71
2022/09/26 09:22:50;;;;;;;7.03;3.70;;;11.70;99.90;;;;;;4867353;29;20519;-72
2022/09/26 09:25:31;;;;;;;11.98;4.38;;;11.80;99.90;;;;;;4857192;29;20496;-73
2022/09/26 09:28:18;;;;;;;6.22;3.13;;;11.70;99.90;;;;;;4871274;29;20508;-72
2022/09/26 09:30:59;;;;;;;11.20;3.63;;;11.70;99.90;;;;;;4886659;29;20053;-72
2022/09/26 09:33:30;;;;;;;10.32;3.60;;;11.80;99.90;;;;;;4861279;29;20045;-72
2022/09/26 09:36:02;;;;;;;11.05;3.70;;;11.80;99.90;;;;;;4885128;29;20045;-72
2022/09/26 09:38:30;;;;;;;12.77;3.58;;;11.80;99.90;;;;;;4870023;29;20049;-72
2022/09/26 09:41:20;;;;;;;7.35;3.10;;;11.80;99.90;;;;;;4876093;29;20045;-72
2022/09/26 09:43:58;;;;;;;7.40;3.58;;;11.80;99.90;;;;;;4873267;29;20508;-72
2022/09/26 09:46:30;;;;;;;6.85;3.17;;;11.80;99.90;;;;;;4870012;29;20055;-72
2022/09/26 09:49:08;;;;;;;8.90;3.40;;;11.80;99.90;;;;;;4858907;29;20044;-72
2022/09/26 09:52:02;;;;;;;4.38;3.22;;;11.80;99.90;;;;;;4885866;29;20056;-72
2022/09/26 09:54:49;;;;;;;9.77;3.38;;;11.90;99.90;;;;;;4872476;29;20053;-72
2022/09/26 09:57:35;;;;;;;6.35;3.60;;;11.90;99.90;;;;;;4888388;29;20107;-72
2022/09/26 10:00:22;;;;;;;11.18;3.90;;;11.90;99.90;;;;;;4857085;29;20139;-72
2022/09/26 10:03:10;;;;;;;9.52;3.70;;;11.90;99.90;;;;;;4871689;29;20504;-72
2022/09/26 10:05:49;;;;;;;10.20;4.05;;;12.00;99.90;;;;;;4869395;29;20149;-72
2022/09/26 10:08:18;;;;;;;9.70;4.47;;;11.90;99.90;;;;;;4854805;29;20496;-72
2022/09/26 10:10:56;;;;;;;7.55;4.13;;;11.90;99.90;;;;;;4859122;29;20069;-72
2022/09/26 10:13:25;;;;;;;8.60;4.20;;;11.90;99.90;;;;;;4871264;29;20052;-72
2022/09/26 10:15:58;;;;;;;9.07;4.40;;;11.90;99.90;;;;;;4865057;29;20140;-72
2022/09/26 10:18:24;;;;;;;11.55;4.78;;;11.90;99.90;;;;;;4872904;29;20052;-72
2022/09/26 10:20:53;;;;;;;8.50;4.60;;;11.90;99.90;;;;;;4876393;29;20150;-72
2022/09/26 10:23:40;;;;;;;9.02;4.60;;;11.90;99.90;;;;;;4875487;29;20108;-72
2022/09/26 10:26:08;;;;;;;12.57;4.97;;;11.90;99.90;;;;;;4860785;29;20041;-72
2022/09/26 10:28:56;;;;;;;10.75;4.78;;;11.90;99.90;;;;;;4870207;29;20484;-72
2022/09/26 10:31:28;;;;;;;8.10;5.18;;;11.90;99.90;;;;;;4870540;29;20164;-72
2022/09/26 10:34:01;;;;;;;10.10;5.22;;;12.00;99.90;;;;;;4869370;29;20174;-72
2022/09/26 10:36:39;;;;;;;12.23;5.03;;;12.00;99.90;;;;;;4884859;29;20049;-71
2022/09/26 10:42:01;;;;;;;9.00;5.07;;;12.00;99.90;;;;;;4871758;29;20562;-71
2022/09/26 10:44:35;;;;;;;13.90;5.45;;;12.00;99.90;;;;;;4871628;29;20437;-71
2022/09/26 10:47:09;;;;;;;10.50;5.68;;;12.00;99.90;;;;;;4866722;29;20053;-71
2022/09/26 10:49:50;;;;;;;9.05;5.18;;;12.00;99.90;;;;;;4855384;29;20128;-71
2022/09/26 10:52:50;;;;;;;10.07;5.57;;;11.90;99.90;;;;;;4870609;29;20119;-71
2022/09/26 10:55:24;;;;;;;9.98;5.20;;;11.90;99.90;;;;;;4877728;29;20263;-71
2022/09/26 10:57:56;;;;;;;8.73;5.07;;;11.90;99.90;;;;;;4870045;29;20063;-71
2022/09/26 11:00:43;;;;;;;8.87;5.40;;;11.80;99.90;;;;;;4858865;29;20408;-71
2022/09/26 11:03:12;;;;;;;8.45;5.60;;;11.80;99.90;;;;;;4869511;29;20352;-71
2022/09/26 11:05:56;;;;;;;8.95;5.30;;;11.80;99.90;;;;;;4869978;29;20065;-71
2022/09/26 11:08:33;;;;;;;7.47;5.03;;;11.80;99.90;;;;;;4859941;29;20580;-71
2022/09/26 11:11:10;;;;;;;8.27;5.38;;;11.80;99.90;;;;;;4871109;29;20072;-70
2022/09/26 11:14:04;;;;;;;9.15;5.28;;;11.70;99.90;;;;;;4868577;29;20108;-70
2022/09/26 11:16:50;;;;;;;8.23;5.10;;;11.70;99.90;;;;;;4869152;29;20057;-71
2022/09/26 11:19:47;;;;;;;8.25;5.47;;;11.70;99.90;;;;;;4869298;29;20049;-71
2022/09/26 11:22:36;;;;;;;8.27;4.80;;;11.70;99.90;;;;;;4870495;29;20132;-70
2022/09/26 11:25:21;;;;;;;8.52;4.90;;;11.70;99.90;;;;;;4868636;29;20079;-70
2022/09/26 11:27:47;;;;;;;7.65;5.30;;;11.70;99.90;;;;;;4869371;29;20061;-72
2022/09/26 11:30:19;;;;;;;7.97;5.20;;;11.70;99.90;;;;;;4858375;29;20412;-70
2022/09/26 11:32:54;;;;;;;8.32;5.35;;;11.70;99.90;;;;;;4869466;29;20406;-70
2022/09/26 11:35:42;;;;;;;7.30;4.93;;;11.80;99.90;;;;;;4860661;29;20135;-70
2022/09/26 11:38:34;;;;;;;7.38;4.93;;;11.80;99.90;;;;;;4870590;29;20127;-70
2022/09/26 11:41:06;;;;;;;7.10;5.20;;;11.80;99.90;;;;;;4852664;29;20143;-70
2022/09/26 11:44:06;;;;;;;6.93;5.03;;;11.80;99.90;;;;;;4871912;29;20045;-70
2022/09/26 11:46:50;;;;;;;5.50;4.63;;;11.80;99.90;;;;;;4867767;29;20084;-70
2022/09/26 11:49:47;;;;;;;5.80;4.50;;;11.80;99.90;;;;;;4876346;29;20041;-70
2022/09/26 11:52:28;;;;;;;7.35;5.22;;;11.90;99.90;;;;;;4875055;29;20135;-70
2022/09/26 11:55:03;;;;;;;8.77;4.82;;;11.90;99.90;;;;;;4870721;29;20055;-72
2022/09/26 11:57:35;;;;;;;8.25;4.30;;;11.90;99.90;;;;;;4869348;29;20076;-72
2022/09/26 12:00:05;;;;;;;8.88;4.60;;;11.90;99.90;;;;;;4875564;29;20049;-73
2022/09/26 12:02:40;;;;;;;8.52;4.35;;;12.00;99.90;;;;;;4860412;29;20052;-73
2022/09/26 12:05:24;;;;;;;6.88;5.07;;;12.00;99.90;;;;;;4872334;29;20144;-70
2022/09/26 12:08:16;;;;;;;5.00;4.40;;;12.00;99.90;;;;;;4867628;29;20575;-70
2022/09/26 12:10:55;;;;;;;8.52;5.82;;;12.00;99.90;;;;;;4871904;29;20227;-73
2022/09/26 12:13:55;;;;;;;8.55;6.00;;;12.10;99.90;;;;;;4884276;29;20058;-73
2022/09/26 12:16:47;;;;;;;7.88;6.32;;;12.20;99.90;;;;;;4867677;29;20063;-73
2022/09/26 12:19:51;;;;;;;7.65;4.80;;;12.20;99.90;;;;;;4862579;29;20567;-70
2022/09/26 12:22:29;;;;;;;6.45;5.43;;;12.20;99.90;;;;;;4858109;29;20606;-70
2022/09/26 12:25:21;;;;;;;7.03;4.55;;;12.30;99.90;;;;;;4860900;29;20543;-70
2022/09/26 12:28:15;;;;;;;8.82;5.40;;;12.30;99.90;;;;;;4868428;29;20052;-73
2022/09/26 12:30:59;;;;;;;5.63;4.28;;;12.30;99.90;;;;;;4865352;29;20619;-71
2022/09/26 12:34:01;;;;;;;7.00;4.72;;;12.30;99.90;;;;;;4865996;29;20104;-71
2022/09/26 12:37:08;;;;;;;7.57;5.88;;;12.30;99.90;;;;;;4832375;29;20535;-71
2022/09/26 12:40:11;;;;;;;8.15;6.65;;;12.40;99.90;;;;;;4844960;29;20053;-71
2022/09/26 12:42:55;;;;;;;6.30;5.70;;;12.50;99.90;;;;;;4868164;29;20048;-71
2022/09/26 12:45:55;;;;;;;7.05;5.00;;;12.70;99.90;;;;;;4867972;29;20430;-71
2022/09/26 12:48:41;;;;;;;7.22;5.68;;;12.80;99.90;;;;;;4865526;29;20491;-71
2022/09/26 12:51:43;;;;;;;6.80;5.00;;;12.90;99.90;;;;;;4872803;29;20075;-71
2022/09/26 12:54:21;;;;;;;4.82;4.22;;;12.90;99.90;;;;;;4867847;29;20060;-72
2022/09/26 12:57:06;;;;;;;5.18;4.63;;;12.90;99.90;;;;;;4868204;29;20075;-72
2022/09/26 13:00:11;;;;;;;5.97;5.05;;;12.90;99.90;;;;;;4888487;29;20060;-72
2022/09/26 13:02:49;;;;;;;8.35;5.35;;;12.90;99.90;;;;;;4870367;29;20087;-71
2022/09/26 13:05:53;;;;;;;8.82;4.80;;;12.90;99.90;;;;;;4881098;29;20547;-71
2022/09/26 13:08:56;;;;;;;7.68;4.68;;;12.90;99.90;;;;;;4871274;29;20052;-71
2022/09/26 13:11:46;;;;;;;6.20;3.93;;;12.90;99.90;;;;;;4883117;29;20060;-73
2022/09/26 13:14:31;;;;;;;6.50;4.38;;;12.90;99.90;;;;;;4866099;29;20454;-72
2022/09/26 13:17:09;;;;;;;7.50;4.03;;;12.90;99.90;;;;;;4887007;29;20159;-71
2022/09/26 13:19:42;;;;;;;4.47;4.05;;;12.90;99.90;;;;;;4872727;29;20076;-72
2022/09/26 13:22:33;;;;;;;5.80;4.22;;;13.00;99.90;;;;;;4882443;29;20790;-72
2022/09/26 13:25:18;;;;;;;4.53;3.90;;;13.00;99.90;;;;;;4861522;29;20342;-72
2022/09/26 13:27:50;;;;;;;7.72;4.80;;;13.00;99.90;;;;;;4855642;29;20060;-72
2022/09/26 13:30:34;;;;;;;5.70;4.70;;;13.00;99.90;;;;;;4870621;29;20337;-72
2022/09/26 13:33:24;;;;;;;4.50;4.10;;;13.00;99.90;;;;;;4885549;29;20049;-72
2022/09/26 13:35:54;;;;;;;5.75;4.70;;;13.00;99.90;;;;;;4862544;29;20045;-72